sensor_id;sensor_type;location;lat;lon;timestamp;pressure;altitude;pressure_sealevel;temperature;humidity
81196;BME280;70671;43.888;-79.394;2023-07-24T00:00:21;98932.03;;;23.70;57.36
81196;BME280;70671;43.888;-79.394;2023-07-24T00:02:47;98923.13;;;23.72;57.23
81196;BME280;70671;43.888;-79.394;2023-07-24T00:05:13;98942.81;;;23.22;59.42
81196;BME280;70671;43.888;-79.394;2023-07-24T00:07:39;98941.00;;;23.24;59.08
81196;BME280;70671;43.888;-79.394;2023-07-24T00:10:06;98936.53;;;23.03;60.73
81196;BME280;70671;43.888;-79.394;2023-07-24T00:12:32;98931.03;;;22.97;59.77
81196;BME280;70671;43.888;-79.394;2023-07-24T00:14:58;98941.34;;;23.02;59.85
81196;BME280;70671;43.888;-79.394;2023-07-24T00:17:24;98939.63;;;22.99;59.88
81196;BME280;70671;43.888;-79.394;2023-07-24T00:19:50;98945.88;;;23.05;59.65
81196;BME280;70671;43.888;-79.394;2023-07-24T00:22:16;98939.50;;;22.91;59.54
81196;BME280;70671;43.888;-79.394;2023-07-24T00:24:42;98963.09;;;22.72;60.04
81196;BME280;70671;43.888;-79.394;2023-07-24T00:27:08;98957.81;;;22.87;59.39
81196;BME280;70671;43.888;-79.394;2023-07-24T00:29:34;98959.03;;;22.91;59.03
81196;BME280;70671;43.888;-79.394;2023-07-24T00:32:00;98966.56;;;22.59;60.32
81196;BME280;70671;43.888;-79.394;2023-07-24T00:34:26;98968.53;;;22.64;60.58
81196;BME280;70671;43.888;-79.394;2023-07-24T00:36:52;98973.94;;;22.57;60.52
81196;BME280;70671;43.888;-79.394;2023-07-24T00:39:25;98968.44;;;22.51;60.97
81196;BME280;70671;43.888;-79.394;2023-07-24T00:41:57;98965.22;;;22.66;59.84
81196;BME280;70671;43.888;-79.394;2023-07-24T00:44:23;98966.50;;;22.46;60.84
81196;BME280;70671;43.888;-79.394;2023-07-24T00:46:49;98967.16;;;22.52;60.56
81196;BME280;70671;43.888;-79.394;2023-07-24T00:49:16;98962.56;;;22.36;61.04
81196;BME280;70671;43.888;-79.394;2023-07-24T00:51:42;98959.47;;;22.40;60.34
81196;BME280;70671;43.888;-79.394;2023-07-24T00:54:11;98961.91;;;22.67;59.50
81196;BME280;70671;43.888;-79.394;2023-07-24T00:56:37;98956.69;;;22.40;60.43
81196;BME280;70671;43.888;-79.394;2023-07-24T00:59:03;98961.06;;;22.35;60.71
81196;BME280;70671;43.888;-79.394;2023-07-24T01:01:29;98950.00;;;22.30;60.89
81196;BME280;70671;43.888;-79.394;2023-07-24T01:03:57;98963.94;;;22.30;61.23
81196;BME280;70671;43.888;-79.394;2023-07-24T01:06:24;98961.66;;;22.28;61.99
81196;BME280;70671;43.888;-79.394;2023-07-24T01:08:50;98958.25;;;22.17;64.29
81196;BME280;70671;43.888;-79.394;2023-07-24T01:11:19;98955.50;;;21.92;65.42
81196;BME280;70671;43.888;-79.394;2023-07-24T01:16:41;98958.28;;;21.68;65.93
81196;BME280;70671;43.888;-79.394;2023-07-24T01:19:37;98966.72;;;21.63;66.34
81196;BME280;70671;43.888;-79.394;2023-07-24T01:24:38;98964.13;;;21.41;67.18
81196;BME280;70671;43.888;-79.394;2023-07-24T01:27:08;98966.53;;;21.25;66.69
81196;BME280;70671;43.888;-79.394;2023-07-24T01:29:33;98973.91;;;21.23;66.81
81196;BME280;70671;43.888;-79.394;2023-07-24T01:31:59;98967.41;;;21.15;66.83
81196;BME280;70671;43.888;-79.394;2023-07-24T01:34:25;98977.00;;;21.14;67.00
81196;BME280;70671;43.888;-79.394;2023-07-24T01:36:52;98976.03;;;21.06;68.12
81196;BME280;70671;43.888;-79.394;2023-07-24T01:39:18;98980.13;;;21.05;67.87
81196;BME280;70671;43.888;-79.394;2023-07-24T01:41:44;98975.34;;;20.94;68.13
81196;BME280;70671;43.888;-79.394;2023-07-24T01:44:11;98977.84;;;20.98;68.47
81196;BME280;70671;43.888;-79.394;2023-07-24T01:46:37;98981.69;;;20.95;69.03
81196;BME280;70671;43.888;-79.394;2023-07-24T01:49:03;98986.00;;;20.90;68.89
81196;BME280;70671;43.888;-79.394;2023-07-24T01:51:29;98990.84;;;20.84;68.44
81196;BME280;70671;43.888;-79.394;2023-07-24T01:53:55;98980.78;;;20.76;69.94
81196;BME280;70671;43.888;-79.394;2023-07-24T01:56:20;98988.34;;;20.81;69.70
81196;BME280;70671;43.888;-79.394;2023-07-24T01:58:46;98993.69;;;20.73;70.50
81196;BME280;70671;43.888;-79.394;2023-07-24T02:01:12;98999.00;;;20.71;70.63
81196;BME280;70671;43.888;-79.394;2023-07-24T02:03:40;98991.97;;;20.65;70.92
81196;BME280;70671;43.888;-79.394;2023-07-24T02:06:07;98999.38;;;20.51;72.28
81196;BME280;70671;43.888;-79.394;2023-07-24T02:08:33;99012.50;;;20.50;72.09
81196;BME280;70671;43.888;-79.394;2023-07-24T02:10:59;99010.75;;;20.47;71.72
81196;BME280;70671;43.888;-79.394;2023-07-24T02:13:25;99012.00;;;20.46;71.61
81196;BME280;70671;43.888;-79.394;2023-07-24T02:15:51;99006.72;;;20.43;72.06
81196;BME280;70671;43.888;-79.394;2023-07-24T02:18:19;99008.25;;;20.38;71.96
81196;BME280;70671;43.888;-79.394;2023-07-24T02:20:51;99009.53;;;20.37;72.12
81196;BME280;70671;43.888;-79.394;2023-07-24T02:23:17;98985.59;;;20.18;72.04
81196;BME280;70671;43.888;-79.394;2023-07-24T02:25:43;99006.78;;;20.26;71.58
81196;BME280;70671;43.888;-79.394;2023-07-24T02:28:09;99011.34;;;20.29;71.77
81196;BME280;70671;43.888;-79.394;2023-07-24T02:30:39;99011.59;;;20.26;72.85
81196;BME280;70671;43.888;-79.394;2023-07-24T02:33:05;99003.78;;;20.19;72.42
81196;BME280;70671;43.888;-79.394;2023-07-24T02:35:31;99014.88;;;20.19;72.11
81196;BME280;70671;43.888;-79.394;2023-07-24T02:37:57;98999.25;;;20.10;72.49
81196;BME280;70671;43.888;-79.394;2023-07-24T02:40:23;99011.13;;;20.11;72.75
81196;BME280;70671;43.888;-79.394;2023-07-24T02:42:49;99010.91;;;20.03;73.99
81196;BME280;70671;43.888;-79.394;2023-07-24T02:45:15;98998.78;;;19.95;74.00
81196;BME280;70671;43.888;-79.394;2023-07-24T02:47:41;99005.88;;;19.96;74.38
81196;BME280;70671;43.888;-79.394;2023-07-24T02:50:08;99015.97;;;19.99;74.21
81196;BME280;70671;43.888;-79.394;2023-07-24T02:52:34;99017.50;;;19.95;75.10
81196;BME280;70671;43.888;-79.394;2023-07-24T02:55:00;99015.44;;;19.95;74.43
81196;BME280;70671;43.888;-79.394;2023-07-24T02:57:26;99020.25;;;19.89;74.25
81196;BME280;70671;43.888;-79.394;2023-07-24T02:59:52;99030.88;;;19.91;74.07
81196;BME280;70671;43.888;-79.394;2023-07-24T03:02:18;99031.09;;;19.87;74.66
81196;BME280;70671;43.888;-79.394;2023-07-24T03:04:44;99036.41;;;19.85;74.91
81196;BME280;70671;43.888;-79.394;2023-07-24T03:07:10;99036.69;;;19.82;75.27
81196;BME280;70671;43.888;-79.394;2023-07-24T03:09:43;99044.00;;;19.79;75.03
81196;BME280;70671;43.888;-79.394;2023-07-24T03:12:09;99047.03;;;19.76;74.90
81196;BME280;70671;43.888;-79.394;2023-07-24T03:14:36;99028.13;;;19.63;74.70
81196;BME280;70671;43.888;-79.394;2023-07-24T03:17:02;99028.63;;;19.61;75.49
81196;BME280;70671;43.888;-79.394;2023-07-24T03:19:36;99042.50;;;19.67;75.78
81196;BME280;70671;43.888;-79.394;2023-07-24T03:22:02;99039.22;;;19.63;75.16
81196;BME280;70671;43.888;-79.394;2023-07-24T03:24:28;99040.00;;;19.58;75.12
81196;BME280;70671;43.888;-79.394;2023-07-24T03:26:54;99043.53;;;19.53;76.07
81196;BME280;70671;43.888;-79.394;2023-07-24T03:29:20;99049.06;;;19.47;76.48
81196;BME280;70671;43.888;-79.394;2023-07-24T03:31:46;99051.34;;;19.43;75.90
81196;BME280;70671;43.888;-79.394;2023-07-24T03:34:12;99029.63;;;19.31;75.78
81196;BME280;70671;43.888;-79.394;2023-07-24T03:36:38;99042.53;;;19.34;76.15
81196;BME280;70671;43.888;-79.394;2023-07-24T03:39:07;99033.16;;;19.26;76.33
81196;BME280;70671;43.888;-79.394;2023-07-24T03:41:33;99047.00;;;19.26;75.63
81196;BME280;70671;43.888;-79.394;2023-07-24T03:43:59;99054.81;;;19.22;76.51
81196;BME280;70671;43.888;-79.394;2023-07-24T03:46:25;99058.34;;;19.17;76.65
81196;BME280;70671;43.888;-79.394;2023-07-24T03:48:51;99061.88;;;19.12;77.30
81196;BME280;70671;43.888;-79.394;2023-07-24T03:51:17;99058.59;;;19.08;77.41
81196;BME280;70671;43.888;-79.394;2023-07-24T03:53:43;99051.28;;;19.05;77.82
81196;BME280;70671;43.888;-79.394;2023-07-24T03:56:09;99060.13;;;19.03;77.62
81196;BME280;70671;43.888;-79.394;2023-07-24T03:58:36;99060.13;;;19.03;77.58
81196;BME280;70671;43.888;-79.394;2023-07-24T04:01:02;99058.84;;;18.99;77.13
81196;BME280;70671;43.888;-79.394;2023-07-24T04:03:28;99067.41;;;19.01;77.31
81196;BME280;70671;43.888;-79.394;2023-07-24T04:05:54;99064.63;;;19.01;77.43
81196;BME280;70671;43.888;-79.394;2023-07-24T04:08:20;99068.13;;;18.96;77.59
81196;BME280;70671;43.888;-79.394;2023-07-24T04:10:46;99032.84;;;18.74;77.37
81196;BME280;70671;43.888;-79.394;2023-07-24T04:13:12;99065.09;;;18.93;78.28
81196;BME280;70671;43.888;-79.394;2023-07-24T04:15:38;99062.09;;;18.91;78.38
81196;BME280;70671;43.888;-79.394;2023-07-24T04:18:05;99053.50;;;18.84;78.70
81196;BME280;70671;43.888;-79.394;2023-07-24T04:20:31;99065.88;;;18.88;79.33
81196;BME280;70671;43.888;-79.394;2023-07-24T04:23:03;99059.56;;;18.88;79.08
81196;BME280;70671;43.888;-79.394;2023-07-24T04:25:29;99055.00;;;18.79;79.29
81196;BME280;70671;43.888;-79.394;2023-07-24T04:27:55;99053.75;;;18.80;79.41
81196;BME280;70671;43.888;-79.394;2023-07-24T04:30:21;99049.22;;;18.83;79.92
81196;BME280;70671;43.888;-79.394;2023-07-24T04:32:47;99053.25;;;18.87;80.06
81196;BME280;70671;43.888;-79.394;2023-07-24T04:35:13;99055.25;;;18.87;79.14
81196;BME280;70671;43.888;-79.394;2023-07-24T04:37:39;99059.81;;;18.84;79.17
81196;BME280;70671;43.888;-79.394;2023-07-24T04:40:05;99046.69;;;18.79;79.60
81196;BME280;70671;43.888;-79.394;2023-07-24T04:42:31;99052.22;;;18.79;79.81
81196;BME280;70671;43.888;-79.394;2023-07-24T04:44:57;99052.22;;;18.79;79.60
81196;BME280;70671;43.888;-79.394;2023-07-24T04:47:23;99040.91;;;18.77;80.28
81196;BME280;70671;43.888;-79.394;2023-07-24T04:49:49;99039.41;;;18.76;79.92
81196;BME280;70671;43.888;-79.394;2023-07-24T04:52:15;99048.94;;;18.75;80.10
81196;BME280;70671;43.888;-79.394;2023-07-24T04:54:41;99021.97;;;18.59;80.42
81196;BME280;70671;43.888;-79.394;2023-07-24T04:57:07;99028.53;;;18.67;79.79
81196;BME280;70671;43.888;-79.394;2023-07-24T04:59:33;99042.16;;;18.76;79.60
81196;BME280;70671;43.888;-79.394;2023-07-24T05:01:59;99046.94;;;18.76;79.59
81196;BME280;70671;43.888;-79.394;2023-07-24T05:04:25;99044.69;;;18.74;79.79
81196;BME280;70671;43.888;-79.394;2023-07-24T05:06:51;99053.00;;;18.74;79.84
81196;BME280;70671;43.888;-79.394;2023-07-24T05:09:17;99051.72;;;18.70;79.83
81196;BME280;70671;43.888;-79.394;2023-07-24T05:11:43;99059.97;;;18.64;79.42
81196;BME280;70671;43.888;-79.394;2023-07-24T05:14:10;99059.97;;;18.64;79.82
81196;BME280;70671;43.888;-79.394;2023-07-24T05:16:36;99062.50;;;18.62;79.74
81196;BME280;70671;43.888;-79.394;2023-07-24T05:19:02;99044.59;;;18.52;79.72
81196;BME280;70671;43.888;-79.394;2023-07-24T05:21:28;99067.50;;;18.53;80.57
81196;BME280;70671;43.888;-79.394;2023-07-24T05:23:54;99066.22;;;18.48;80.11
81196;BME280;70671;43.888;-79.394;2023-07-24T05:26:20;99071.50;;;18.46;80.15
81196;BME280;70671;43.888;-79.394;2023-07-24T05:28:47;99069.75;;;18.43;80.07
81196;BME280;70671;43.888;-79.394;2023-07-24T05:31:13;99066.16;;;18.37;80.23
81196;BME280;70671;43.888;-79.394;2023-07-24T05:33:39;99055.84;;;18.38;80.27
81196;BME280;70671;43.888;-79.394;2023-07-24T05:36:05;99057.59;;;18.35;79.93
81196;BME280;70671;43.888;-79.394;2023-07-24T05:38:31;99056.31;;;18.31;80.66
81196;BME280;70671;43.888;-79.394;2023-07-24T05:41:03;99062.88;;;18.33;80.91
81196;BME280;70671;43.888;-79.394;2023-07-24T05:43:30;99049.75;;;18.28;80.73
81196;BME280;70671;43.888;-79.394;2023-07-24T05:45:57;99068.16;;;18.31;80.24
81196;BME280;70671;43.888;-79.394;2023-07-24T05:48:24;99074.41;;;18.26;80.50
81196;BME280;70671;43.888;-79.394;2023-07-24T05:50:50;99072.13;;;18.19;80.86
81196;BME280;70671;43.888;-79.394;2023-07-24T05:53:17;99072.38;;;18.21;80.97
81196;BME280;70671;43.888;-79.394;2023-07-24T05:55:43;99072.63;;;18.23;80.59
81196;BME280;70671;43.888;-79.394;2023-07-24T05:58:09;99073.63;;;18.20;80.78
81196;BME280;70671;43.888;-79.394;2023-07-24T06:00:35;99069.09;;;18.17;81.29
81196;BME280;70671;43.888;-79.394;2023-07-24T06:03:04;99072.59;;;18.18;81.02
81196;BME280;70671;43.888;-79.394;2023-07-24T06:05:30;99067.56;;;18.16;80.96
81196;BME280;70671;43.888;-79.394;2023-07-24T06:07:56;99072.31;;;18.16;81.34
81196;BME280;70671;43.888;-79.394;2023-07-24T06:10:22;99066.78;;;18.16;81.30
81196;BME280;70671;43.888;-79.394;2023-07-24T06:12:48;99066.06;;;18.15;80.92
81196;BME280;70671;43.888;-79.394;2023-07-24T06:15:14;99052.41;;;18.06;80.37
81196;BME280;70671;43.888;-79.394;2023-07-24T06:17:40;99061.97;;;18.05;80.70
81196;BME280;70671;43.888;-79.394;2023-07-24T06:20:06;99058.44;;;18.04;81.39
81196;BME280;70671;43.888;-79.394;2023-07-24T06:22:33;99043.31;;;18.00;81.45
81196;BME280;70671;43.888;-79.394;2023-07-24T06:24:59;99072.38;;;18.21;81.71
81196;BME280;70671;43.888;-79.394;2023-07-24T06:27:25;99061.78;;;18.20;81.58
81196;BME280;70671;43.888;-79.394;2023-07-24T06:29:51;99056.75;;;18.18;81.53
81196;BME280;70671;43.888;-79.394;2023-07-24T06:32:17;99081.47;;;18.33;81.28
81196;BME280;70671;43.888;-79.394;2023-07-24T06:34:43;99083.03;;;18.39;81.55
81196;BME280;70671;43.888;-79.394;2023-07-24T06:37:08;99069.66;;;18.32;81.15
81196;BME280;70671;43.888;-79.394;2023-07-24T06:39:34;99065.63;;;18.33;80.90
81196;BME280;70671;43.888;-79.394;2023-07-24T06:42:00;99074.53;;;18.48;81.04
81196;BME280;70671;43.888;-79.394;2023-07-24T06:44:26;99060.16;;;18.44;80.91
81196;BME280;70671;43.888;-79.394;2023-07-24T06:46:52;99070.78;;;18.51;80.59
81196;BME280;70671;43.888;-79.394;2023-07-24T06:49:18;99061.47;;;18.54;80.87
81196;BME280;70671;43.888;-79.394;2023-07-24T06:51:45;99058.22;;;18.61;80.28
81196;BME280;70671;43.888;-79.394;2023-07-24T06:54:11;99065.25;;;18.62;80.85
81196;BME280;70671;43.888;-79.394;2023-07-24T06:56:37;99057.72;;;18.63;80.94
81196;BME280;70671;43.888;-79.394;2023-07-24T06:59:03;99052.69;;;18.61;80.29
81196;BME280;70671;43.888;-79.394;2023-07-24T07:01:29;99048.44;;;18.66;80.33
81196;BME280;70671;43.888;-79.394;2023-07-24T07:03:55;99032.03;;;18.62;80.88
81196;BME280;70671;43.888;-79.394;2023-07-24T07:06:20;99031.56;;;18.69;80.84
81196;BME280;70671;43.888;-79.394;2023-07-24T07:08:46;99043.16;;;18.79;80.53
81196;BME280;70671;43.888;-79.394;2023-07-24T07:11:12;99037.63;;;18.79;80.80
81196;BME280;70671;43.888;-79.394;2023-07-24T07:13:38;99033.34;;;18.78;80.22
81196;BME280;70671;43.888;-79.394;2023-07-24T07:16:04;99047.72;;;18.87;80.33
81196;BME280;70671;43.888;-79.394;2023-07-24T07:18:30;99019.75;;;18.80;80.29
81196;BME280;70671;43.888;-79.394;2023-07-24T07:20:56;99034.63;;;18.93;80.29
81196;BME280;70671;43.888;-79.394;2023-07-24T07:23:22;99028.84;;;18.91;80.01
81196;BME280;70671;43.888;-79.394;2023-07-24T07:25:50;99020.28;;;18.95;80.25
81196;BME280;70671;43.888;-79.394;2023-07-24T07:28:16;99020.56;;;19.03;80.21
81196;BME280;70671;43.888;-79.394;2023-07-24T07:30:43;99026.09;;;19.03;80.23
81196;BME280;70671;43.888;-79.394;2023-07-24T07:33:09;99025.06;;;19.06;80.16
81196;BME280;70671;43.888;-79.394;2023-07-24T07:35:35;99028.88;;;19.08;80.26
81196;BME280;70671;43.888;-79.394;2023-07-24T07:38:02;99031.13;;;19.10;80.33
81196;BME280;70671;43.888;-79.394;2023-07-24T07:40:28;99031.63;;;19.14;79.98
81196;BME280;70671;43.888;-79.394;2023-07-24T07:42:55;99027.34;;;19.13;80.01
81196;BME280;70671;43.888;-79.394;2023-07-24T07:45:21;99032.13;;;19.12;80.24
81196;BME280;70671;43.888;-79.394;2023-07-24T07:47:47;99035.69;;;19.13;80.21
81196;BME280;70671;43.888;-79.394;2023-07-24T07:50:13;99045.50;;;19.19;80.06
81196;BME280;70671;43.888;-79.394;2023-07-24T07:52:39;99043.22;;;19.18;80.16
81196;BME280;70671;43.888;-79.394;2023-07-24T07:55:06;99051.78;;;19.20;80.22
81196;BME280;70671;43.888;-79.394;2023-07-24T07:57:35;99047.28;;;19.17;80.30
81196;BME280;70671;43.888;-79.394;2023-07-24T08:00:04;99048.03;;;19.17;80.20
81196;BME280;70671;43.888;-79.394;2023-07-24T08:02:32;99047.53;;;19.19;79.84
81196;BME280;70671;43.888;-79.394;2023-07-24T08:04:59;99030.13;;;19.13;79.60
81196;BME280;70671;43.888;-79.394;2023-07-24T08:07:25;99044.75;;;19.19;80.12
81196;BME280;70671;43.888;-79.394;2023-07-24T08:09:51;99035.41;;;19.22;80.12
81196;BME280;70671;43.888;-79.394;2023-07-24T08:12:17;99022.56;;;19.19;79.68
81196;BME280;70671;43.888;-79.394;2023-07-24T08:14:43;99028.88;;;19.25;79.68
81196;BME280;70671;43.888;-79.394;2023-07-24T08:17:09;99026.09;;;19.25;79.56
81196;BME280;70671;43.888;-79.394;2023-07-24T08:19:35;98964.59;;;18.87;79.43
81196;BME280;70671;43.888;-79.394;2023-07-24T08:22:01;99027.09;;;19.22;79.76
81196;BME280;70671;43.888;-79.394;2023-07-24T08:24:26;99050.28;;;19.24;80.09
81196;BME280;70671;43.888;-79.394;2023-07-24T08:26:52;99036.44;;;19.24;79.74
81196;BME280;70671;43.888;-79.394;2023-07-24T08:29:18;99009.72;;;19.05;80.17
81196;BME280;70671;43.888;-79.394;2023-07-24T08:31:44;99040.97;;;19.22;80.45
81196;BME280;70671;43.888;-79.394;2023-07-24T08:34:10;99043.00;;;19.21;79.95
81196;BME280;70671;43.888;-79.394;2023-07-24T08:36:36;99046.75;;;19.24;79.97
81196;BME280;70671;43.888;-79.394;2023-07-24T08:39:03;99043.72;;;19.22;79.60
81196;BME280;70671;43.888;-79.394;2023-07-24T08:41:29;99060.88;;;19.26;79.57
81196;BME280;70671;43.888;-79.394;2023-07-24T08:43:58;99042.22;;;19.21;80.44
81196;BME280;70671;43.888;-79.394;2023-07-24T08:46:25;99052.56;;;19.26;80.04
81196;BME280;70671;43.888;-79.394;2023-07-24T08:48:52;99054.34;;;19.23;80.44
81196;BME280;70671;43.888;-79.394;2023-07-24T08:51:18;99047.78;;;19.21;80.08
81196;BME280;70671;43.888;-79.394;2023-07-24T08:53:46;99058.13;;;19.31;79.93
81196;BME280;70671;43.888;-79.394;2023-07-24T08:56:13;99058.88;;;19.32;79.57
81196;BME280;70671;43.888;-79.394;2023-07-24T08:58:39;99065.94;;;19.33;80.08
81196;BME280;70671;43.888;-79.394;2023-07-24T09:01:06;99063.91;;;19.28;79.57
81196;BME280;70671;43.888;-79.394;2023-07-24T09:03:33;99077.00;;;19.33;79.86
81196;BME280;70671;43.888;-79.394;2023-07-24T09:05:59;99070.25;;;19.34;79.86
81196;BME280;70671;43.888;-79.394;2023-07-24T09:08:31;99061.38;;;19.30;79.82
81196;BME280;70671;43.888;-79.394;2023-07-24T09:10:58;99074.00;;;19.36;79.53
81196;BME280;70671;43.888;-79.394;2023-07-24T09:13:24;99071.25;;;19.36;79.49
81196;BME280;70671;43.888;-79.394;2023-07-24T09:15:51;99076.78;;;19.36;79.81
81196;BME280;70671;43.888;-79.394;2023-07-24T09:18:17;99079.03;;;19.32;79.94
81196;BME280;70671;43.888;-79.394;2023-07-24T09:20:44;99092.16;;;19.32;80.15
81196;BME280;70671;43.888;-79.394;2023-07-24T09:23:12;99085.34;;;19.27;80.12
81196;BME280;70671;43.888;-79.394;2023-07-24T09:25:39;99085.34;;;19.33;79.45
81196;BME280;70671;43.888;-79.394;2023-07-24T09:28:13;99087.41;;;19.38;79.82
81196;BME280;70671;43.888;-79.394;2023-07-24T09:30:40;99085.09;;;19.36;79.61
81196;BME280;70671;43.888;-79.394;2023-07-24T09:33:07;99092.94;;;19.43;79.61
81196;BME280;70671;43.888;-79.394;2023-07-24T09:35:33;99067.19;;;19.32;79.87
81196;BME280;70671;43.888;-79.394;2023-07-24T09:38:06;99074.78;;;19.42;80.00
81196;BME280;70671;43.888;-79.394;2023-07-24T09:40:41;99080.81;;;19.46;80.23
81196;BME280;70671;43.888;-79.394;2023-07-24T09:43:24;99085.13;;;19.53;80.42
81196;BME280;70671;43.888;-79.394;2023-07-24T09:45:52;99086.66;;;19.54;80.58
81196;BME280;70671;43.888;-79.394;2023-07-24T09:48:20;99093.69;;;19.55;80.18
81196;BME280;70671;43.888;-79.394;2023-07-24T09:50:49;99056.84;;;19.27;80.37
81196;BME280;70671;43.888;-79.394;2023-07-24T09:56:06;99071.47;;;19.33;80.81
81196;BME280;70671;43.888;-79.394;2023-07-24T09:58:34;99083.88;;;19.37;80.93
81196;BME280;70671;43.888;-79.394;2023-07-24T10:01:03;99071.69;;;19.24;80.89
81196;BME280;70671;43.888;-79.394;2023-07-24T10:03:34;99074.72;;;19.26;80.63
81196;BME280;70671;43.888;-79.394;2023-07-24T10:06:01;99071.97;;;19.15;80.62
81196;BME280;70671;43.888;-79.394;2023-07-24T10:08:28;99079.75;;;19.16;81.04
81196;BME280;70671;43.888;-79.394;2023-07-24T10:10:54;99093.63;;;19.11;81.40
81196;BME280;70671;43.888;-79.394;2023-07-24T10:13:21;99078.50;;;19.01;81.14
81196;BME280;70671;43.888;-79.394;2023-07-24T10:15:48;99083.00;;;19.04;81.61
81196;BME280;70671;43.888;-79.394;2023-07-24T10:18:16;99075.44;;;18.87;81.65
81196;BME280;70671;43.888;-79.394;2023-07-24T10:20:45;99085.78;;;18.98;81.46
81196;BME280;70671;43.888;-79.394;2023-07-24T10:23:16;99103.16;;;18.99;81.82
81196;BME280;70671;43.888;-79.394;2023-07-24T10:25:44;99084.00;;;18.89;81.69
81196;BME280;70671;43.888;-79.394;2023-07-24T10:28:12;99102.66;;;18.95;82.04
81196;BME280;70671;43.888;-79.394;2023-07-24T10:30:39;99098.91;;;19.03;82.28
81196;BME280;70671;43.888;-79.394;2023-07-24T10:33:19;99094.38;;;19.11;81.75
81196;BME280;70671;43.888;-79.394;2023-07-24T10:35:54;99097.16;;;19.17;82.36
81196;BME280;70671;43.888;-79.394;2023-07-24T10:38:33;99093.63;;;19.22;82.28
81196;BME280;70671;43.888;-79.394;2023-07-24T10:41:04;99100.44;;;19.26;82.07
81196;BME280;70671;43.888;-79.394;2023-07-24T10:46:06;99095.41;;;19.30;81.93
81196;BME280;70671;43.888;-79.394;2023-07-24T10:48:32;99109.31;;;19.36;81.85
81196;BME280;70671;43.888;-79.394;2023-07-24T10:50:58;99116.38;;;19.37;82.01
81196;BME280;70671;43.888;-79.394;2023-07-24T10:53:31;99126.94;;;19.38;81.93
81196;BME280;70671;43.888;-79.394;2023-07-24T10:56:00;99116.09;;;19.29;82.44
81196;BME280;70671;43.888;-79.394;2023-07-24T10:58:27;99132.53;;;19.44;82.10
81196;BME280;70671;43.888;-79.394;2023-07-24T11:00:53;99122.44;;;19.41;82.23
81196;BME280;70671;43.888;-79.394;2023-07-24T11:03:19;99127.75;;;19.55;81.75
81196;BME280;70671;43.888;-79.394;2023-07-24T11:05:46;99120.19;;;19.56;81.98
81196;BME280;70671;43.888;-79.394;2023-07-24T11:08:15;99114.88;;;19.58;82.64
81196;BME280;70671;43.888;-79.394;2023-07-24T11:10:49;99127.75;;;19.72;82.67
81196;BME280;70671;43.888;-79.394;2023-07-24T11:13:16;99115.63;;;19.69;82.60
81196;BME280;70671;43.888;-79.394;2023-07-24T11:15:42;99130.28;;;19.87;81.83
81196;BME280;70671;43.888;-79.394;2023-07-24T11:18:08;99134.53;;;19.93;81.72
81196;BME280;70671;43.888;-79.394;2023-07-24T11:20:38;99119.91;;;19.98;81.43
81196;BME280;70671;43.888;-79.394;2023-07-24T11:23:08;99134.03;;;20.11;81.42
81196;BME280;70671;43.888;-79.394;2023-07-24T11:25:35;99132.75;;;20.12;81.40
81196;BME280;70671;43.888;-79.394;2023-07-24T11:28:01;99134.78;;;20.17;81.66
81196;BME280;70671;43.888;-79.394;2023-07-24T11:30:29;99132.28;;;20.19;81.90
81196;BME280;70671;43.888;-79.394;2023-07-24T11:32:57;99141.59;;;20.27;81.27
81196;BME280;70671;43.888;-79.394;2023-07-24T11:35:26;99132.00;;;20.28;81.17
81196;BME280;70671;43.888;-79.394;2023-07-24T11:37:52;99122.16;;;20.27;81.08
81196;BME280;70671;43.888;-79.394;2023-07-24T11:40:18;99131.75;;;20.32;81.07
81196;BME280;70671;43.888;-79.394;2023-07-24T11:42:48;99129.72;;;20.38;80.71
81196;BME280;70671;43.888;-79.394;2023-07-24T11:45:14;99129.19;;;20.39;81.16
81196;BME280;70671;43.888;-79.394;2023-07-24T11:47:45;99126.94;;;20.32;81.06
81196;BME280;70671;43.888;-79.394;2023-07-24T11:50:12;99133.72;;;20.42;80.83
81196;BME280;70671;43.888;-79.394;2023-07-24T11:55:18;99138.97;;;20.57;80.98
81196;BME280;70671;43.888;-79.394;2023-07-24T11:57:59;99133.13;;;20.72;80.87
81196;BME280;70671;43.888;-79.394;2023-07-24T12:00:27;99125.72;;;20.91;81.17
81196;BME280;70671;43.888;-79.394;2023-07-24T12:02:58;99133.75;;;21.11;79.86
81196;BME280;70671;43.888;-79.394;2023-07-24T12:05:25;99125.31;;;21.27;79.05
81196;BME280;70671;43.888;-79.394;2023-07-24T12:07:54;99127.22;;;21.44;78.51
81196;BME280;70671;43.888;-79.394;2023-07-24T12:10:27;99139.78;;;21.56;78.12
81196;BME280;70671;43.888;-79.394;2023-07-24T12:12:54;99141.00;;;21.60;77.78
81196;BME280;70671;43.888;-79.394;2023-07-24T12:15:21;99132.66;;;21.60;77.08
81196;BME280;70671;43.888;-79.394;2023-07-24T12:17:47;99152.84;;;21.66;76.54
81196;BME280;70671;43.888;-79.394;2023-07-24T12:20:13;99140.44;;;21.67;77.12
81196;BME280;70671;43.888;-79.394;2023-07-24T12:22:39;99128.81;;;21.63;76.67
81196;BME280;70671;43.888;-79.394;2023-07-24T12:25:06;99139.28;;;21.52;76.95
81196;BME280;70671;43.888;-79.394;2023-07-24T12:27:32;99113.25;;;21.49;76.92
81196;BME280;70671;43.888;-79.394;2023-07-24T12:29:59;99135.81;;;21.75;76.09
81196;BME280;70671;43.888;-79.394;2023-07-24T12:32:25;99126.94;;;21.82;76.29
81196;BME280;70671;43.888;-79.394;2023-07-24T12:34:52;99127.81;;;21.96;77.22
81196;BME280;70671;43.888;-79.394;2023-07-24T12:37:19;99135.09;;;22.04;77.15
81196;BME280;70671;43.888;-79.394;2023-07-24T12:39:46;99141.13;;;22.08;76.79
81196;BME280;70671;43.888;-79.394;2023-07-24T12:42:13;99141.03;;;22.20;76.38
81196;BME280;70671;43.888;-79.394;2023-07-24T12:44:39;99144.00;;;22.27;75.77
81196;BME280;70671;43.888;-79.394;2023-07-24T12:47:05;99141.38;;;22.35;74.99
81196;BME280;70671;43.888;-79.394;2023-07-24T12:49:31;99148.34;;;22.47;74.93
81196;BME280;70671;43.888;-79.394;2023-07-24T12:51:57;99151.06;;;22.52;73.42